<?xml version="1.0" encoding="utf-8"?>
<gpx xmlns:xsi="http://www.w3.org/2001/XMLSchema-instance" xmlns:xsd="http://www.w3.org/2001/XMLSchema" version="1.1" creator="Shapelink.com" xmlns="http://www.topografix.com/GPX/1/1" xmlns:gpxtpx="http://www.garmin.com/xmlschemas/TrackPointExtension/v1">
  <metadata>
    <name>Övrigt 2.53 km, 2019-05-08</name>
    <desc></desc>
    <author><name>Marian Moron</name></author> 
    <time>2019-05-08T20:50:00Z</time>
  </metadata>
  <trk>
    <name>Övrigt 2.53 km, 2019-05-08</name>
    <trkseg>
      <trkpt lat="51.229773737741" lon="4.457878730115">
        <ele>30.4</ele>
        <time>2019-05-08T20:50:00Z</time>
      </trkpt>
      <trkpt lat="51.22985261142" lon="4.457908234403">
        <ele>15.4</ele>
        <time>2019-05-08T20:50:15Z</time>
      </trkpt>
      <trkpt lat="51.229838613647" lon="4.457940839994">
        <ele>11.4</ele>
        <time>2019-05-08T20:50:28Z</time>
      </trkpt>
      <trkpt lat="51.22993307766" lon="4.458360437908">
        <ele>18.6</ele>
        <time>2019-05-08T20:50:49Z</time>
      </trkpt>
      <trkpt lat="51.229972891685" lon="4.45877265975">
        <ele>20.2</ele>
        <time>2019-05-08T20:51:08Z</time>
      </trkpt>
      <trkpt lat="51.229986218906" lon="4.458779700546">
        <ele>21</ele>
        <time>2019-05-08T20:51:12Z</time>
      </trkpt>
      <trkpt lat="51.230091747027" lon="4.458647853259">
        <ele>11.4</ele>
        <time>2019-05-08T20:51:37Z</time>
      </trkpt>
      <trkpt lat="51.230514194787" lon="4.458474850843">
        <ele>0</ele>
        <time>2019-05-08T20:52:18Z</time>
      </trkpt>
      <trkpt lat="51.230638163088" lon="4.458510641556">
        <ele>1.4</ele>
        <time>2019-05-08T20:52:28Z</time>
      </trkpt>
      <trkpt lat="51.230776464438" lon="4.458564201897">
        <ele>6.8</ele>
        <time>2019-05-08T20:52:37Z</time>
      </trkpt>
      <trkpt lat="51.230848716416" lon="4.458770312818">
        <ele>13</ele>
        <time>2019-05-08T20:52:44Z</time>
      </trkpt>
      <trkpt lat="51.230854583746" lon="4.458820268942">
        <ele>15.2</ele>
        <time>2019-05-08T20:52:46Z</time>
      </trkpt>
      <trkpt lat="51.23075366567" lon="4.458787328075">
        <ele>8.2</ele>
        <time>2019-05-08T20:53:00Z</time>
      </trkpt>
      <trkpt lat="51.230500867566" lon="4.458934598058">
        <ele>0.2</ele>
        <time>2019-05-08T20:53:44Z</time>
      </trkpt>
      <trkpt lat="51.230626679885" lon="4.459633229423">
        <ele>13.2</ele>
        <time>2019-05-08T20:54:25Z</time>
      </trkpt>
      <trkpt lat="51.230613771759" lon="4.45968461047">
        <ele>16.8</ele>
        <time>2019-05-08T20:54:32Z</time>
      </trkpt>
      <trkpt lat="51.230655765078" lon="4.459834814118">
        <ele>19.6</ele>
        <time>2019-05-08T20:54:50Z</time>
      </trkpt>
      <trkpt lat="51.230804962898" lon="4.459741858847">
        <ele>15.2</ele>
        <time>2019-05-08T20:55:06Z</time>
      </trkpt>
      <trkpt lat="51.231236966024" lon="4.459554104287">
        <ele>6.2</ele>
        <time>2019-05-08T20:55:39Z</time>
      </trkpt>
      <trkpt lat="51.231336962091" lon="4.459572879743">
        <ele>9</ele>
        <time>2019-05-08T20:55:49Z</time>
      </trkpt>
      <trkpt lat="51.231718003265" lon="4.459642114237">
        <ele>14.8</ele>
        <time>2019-05-08T20:56:25Z</time>
      </trkpt>
      <trkpt lat="51.231802325179" lon="4.459890637572">
        <ele>3.6</ele>
        <time>2019-05-08T20:57:06Z</time>
      </trkpt>
      <trkpt lat="51.231861669031" lon="4.460236642404">
        <ele>2.2</ele>
        <time>2019-05-08T20:58:05Z</time>
      </trkpt>
      <trkpt lat="51.232051770523" lon="4.460880204686">
        <ele>5.8</ele>
        <time>2019-05-08T20:58:38Z</time>
      </trkpt>
      <trkpt lat="51.232087477417" lon="4.461085980331">
        <ele>7.2</ele>
        <time>2019-05-08T20:58:50Z</time>
      </trkpt>
      <trkpt lat="51.232130057469" lon="4.461341293005">
        <ele>9.6</ele>
        <time>2019-05-08T20:59:06Z</time>
      </trkpt>
      <trkpt lat="51.232265257516" lon="4.461785030791">
        <ele>13.2</ele>
        <time>2019-05-08T20:59:38Z</time>
      </trkpt>
      <trkpt lat="51.232349998525" lon="4.462498917214">
        <ele>9.4</ele>
        <time>2019-05-08T21:00:06Z</time>
      </trkpt>
      <trkpt lat="51.232370953275" lon="4.462607295181">
        <ele>10.2</ele>
        <time>2019-05-08T21:00:13Z</time>
      </trkpt>
      <trkpt lat="51.232405151427" lon="4.462934943652">
        <ele>10.2</ele>
        <time>2019-05-08T21:00:47Z</time>
      </trkpt>
      <trkpt lat="51.232426441453" lon="4.463027396009">
        <ele>11.2</ele>
        <time>2019-05-08T21:00:52Z</time>
      </trkpt>
      <trkpt lat="51.23250799734" lon="4.463531986389">
        <ele>8.2</ele>
        <time>2019-05-08T21:01:29Z</time>
      </trkpt>
      <trkpt lat="51.232556360903" lon="4.463778665706">
        <ele>4.2</ele>
        <time>2019-05-08T21:01:41Z</time>
      </trkpt>
      <trkpt lat="51.232509757539" lon="4.464104889254">
        <ele>5.6</ele>
        <time>2019-05-08T21:02:00Z</time>
      </trkpt>
      <trkpt lat="51.232381682107" lon="4.464479811641">
        <ele>3.4</ele>
        <time>2019-05-08T21:02:22Z</time>
      </trkpt>
      <trkpt lat="51.232169620037" lon="4.465127900149">
        <ele>0.2</ele>
        <time>2019-05-08T21:02:51Z</time>
      </trkpt>
      <trkpt lat="51.232073395825" lon="4.465147597614">
        <ele>1.2</ele>
        <time>2019-05-08T21:03:05Z</time>
      </trkpt>
      <trkpt lat="51.231946745316" lon="4.465098982594">
        <ele>0</ele>
        <time>2019-05-08T21:03:15Z</time>
      </trkpt>
      <trkpt lat="51.231593196774" lon="4.464690616426">
        <ele>8.4</ele>
        <time>2019-05-08T21:03:52Z</time>
      </trkpt>
      <trkpt lat="51.231423211842" lon="4.464551895981">
        <ele>7</ele>
        <time>2019-05-08T21:04:11Z</time>
      </trkpt>
      <trkpt lat="51.231288682347" lon="4.464434884657">
        <ele>2.8</ele>
        <time>2019-05-08T21:04:33Z</time>
      </trkpt>
      <trkpt lat="51.231204025157" lon="4.464413594631">
        <ele>1.8</ele>
        <time>2019-05-08T21:04:42Z</time>
      </trkpt>
      <trkpt lat="51.230755258231" lon="4.464566564306">
        <ele>3.8</ele>
        <time>2019-05-08T21:05:12Z</time>
      </trkpt>
      <trkpt lat="51.230697255483" lon="4.46459221292">
        <ele>2.6</ele>
        <time>2019-05-08T21:05:17Z</time>
      </trkpt>
      <trkpt lat="51.230757269887" lon="4.464883316307">
        <ele>0</ele>
        <time>2019-05-08T21:05:41Z</time>
      </trkpt>
      <trkpt lat="51.230829438046" lon="4.465288497353">
        <ele>0</ele>
        <time>2019-05-08T21:05:58Z</time>
      </trkpt>
      <trkpt lat="51.230847626769" lon="4.46539687532">
        <ele>0</ele>
        <time>2019-05-08T21:06:10Z</time>
      </trkpt>
      <trkpt lat="51.230834215729" lon="4.465478598845">
        <ele>0</ele>
        <time>2019-05-08T21:06:18Z</time>
      </trkpt>
      <trkpt lat="51.230777805542" lon="4.466195838028">
        <ele>1</ele>
        <time>2019-05-08T21:06:48Z</time>
      </trkpt>
      <trkpt lat="51.230753330394" lon="4.4663037969">
        <ele>2.8</ele>
        <time>2019-05-08T21:06:58Z</time>
      </trkpt>
      <trkpt lat="51.230748133616" lon="4.467021706635">
        <ele>5.8</ele>
        <time>2019-05-08T21:07:33Z</time>
      </trkpt>
      <trkpt lat="51.230711085618" lon="4.467276767852">
        <ele>6.2</ele>
        <time>2019-05-08T21:07:50Z</time>
      </trkpt>
      <trkpt lat="51.230566916938" lon="4.467319515542">
        <ele>4.8</ele>
        <time>2019-05-08T21:08:11Z</time>
      </trkpt>
      <trkpt lat="51.230457114048" lon="4.467365867449">
        <ele>5.6</ele>
        <time>2019-05-08T21:08:28Z</time>
      </trkpt>
      <trkpt lat="51.230187300687" lon="4.467465863516">
        <ele>4.2</ele>
        <time>2019-05-08T21:08:54Z</time>
      </trkpt>
      <trkpt lat="51.230138015115" lon="4.467459325634">
        <ele>4.8</ele>
        <time>2019-05-08T21:09:04Z</time>
      </trkpt>
      <trkpt lat="51.23002444037" lon="4.46753090706">
        <ele>4.8</ele>
        <time>2019-05-08T21:09:15Z</time>
      </trkpt>
      <trkpt lat="51.229949925279" lon="4.467537864037">
        <ele>4.6</ele>
        <time>2019-05-08T21:09:22Z</time>
      </trkpt>
      <trkpt lat="51.229505349303" lon="4.467631992774">
        <ele>1.6</ele>
        <time>2019-05-08T21:09:57Z</time>
      </trkpt>
      <trkpt lat="51.229332346887" lon="4.46760802054">
        <ele>0.8</ele>
        <time>2019-05-08T21:10:13Z</time>
      </trkpt>
      <trkpt lat="51.229293790147" lon="4.467576923691">
        <ele>1.2</ele>
        <time>2019-05-08T21:10:31Z</time>
      </trkpt>
      <trkpt lat="51.229107209053" lon="4.467505677541">
        <ele>1.2</ele>
        <time>2019-05-08T21:10:49Z</time>
      </trkpt>
      <trkpt lat="51.228815351295" lon="4.46740853132">
        <ele>5</ele>
        <time>2019-05-08T21:11:18Z</time>
      </trkpt>
      <trkpt lat="51.228598511542" lon="4.467395455556">
        <ele>8</ele>
        <time>2019-05-08T21:11:47Z</time>
      </trkpt>
      <trkpt lat="51.228474962336" lon="4.467334016229">
        <ele>5.4</ele>
        <time>2019-05-08T21:12:10Z</time>
      </trkpt>
      <trkpt lat="51.228227444829" lon="4.467227901375">
        <ele>14.6</ele>
        <time>2019-05-08T21:12:41Z</time>
      </trkpt>
      <trkpt lat="51.227863921826" lon="4.466791288204">
        <ele>2.2</ele>
        <time>2019-05-08T21:13:17Z</time>
      </trkpt>
      <trkpt lat="51.227879595979" lon="4.466613843381">
        <ele>3.6</ele>
        <time>2019-05-08T21:13:37Z</time>
      </trkpt>
      <trkpt lat="51.22787029207" lon="4.466265323979">
        <ele>4</ele>
        <time>2019-05-08T21:14:02Z</time>
      </trkpt>
      <trkpt lat="51.227897784702" lon="4.465754447174">
        <ele>10.8</ele>
        <time>2019-05-08T21:14:35Z</time>
      </trkpt>
      <trkpt lat="51.227874315382" lon="4.465028406996">
        <ele>10.8</ele>
        <time>2019-05-08T21:15:13Z</time>
      </trkpt>
      <trkpt lat="51.227901640376" lon="4.464459443624">
        <ele>21.8</ele>
        <time>2019-05-08T21:15:48Z</time>
      </trkpt>
      <trkpt lat="51.227880434169" lon="4.46403733114">
        <ele>17.8</ele>
        <time>2019-05-08T21:16:15Z</time>
      </trkpt>
      <trkpt lat="51.227827963475" lon="4.463293102239">
        <ele>13.8</ele>
        <time>2019-05-08T21:16:39Z</time>
      </trkpt>
      <trkpt lat="51.227786640708" lon="4.463199727873">
        <ele>14.8</ele>
        <time>2019-05-08T21:17:09Z</time>
      </trkpt>
      <trkpt lat="51.227627887522" lon="4.462525990751">
        <ele>8.4</ele>
        <time>2019-05-08T21:17:30Z</time>
      </trkpt>
      <trkpt lat="51.227573908086" lon="4.462354580896">
        <ele>5.6</ele>
        <time>2019-05-08T21:17:39Z</time>
      </trkpt>
      <trkpt lat="51.227509786551" lon="4.462184009231">
        <ele>6.4</ele>
        <time>2019-05-08T21:17:59Z</time>
      </trkpt>
      <trkpt lat="51.227476258951" lon="4.461990219703">
        <ele>8.8</ele>
        <time>2019-05-08T21:18:13Z</time>
      </trkpt>
      <trkpt lat="51.227321696715" lon="4.461305753749">
        <ele>7.8</ele>
        <time>2019-05-08T21:18:42Z</time>
      </trkpt>
      <trkpt lat="51.227335275393" lon="4.4611908379">
        <ele>0</ele>
        <time>2019-05-08T21:19:10Z</time>
      </trkpt>
      <trkpt lat="51.227345082216" lon="4.461042645908">
        <ele>0</ele>
        <time>2019-05-08T21:19:17Z</time>
      </trkpt>
      <trkpt lat="51.227340388352" lon="4.460498325322">
        <ele>8.6</ele>
        <time>2019-05-08T21:19:46Z</time>
      </trkpt>
      <trkpt lat="51.227329994796" lon="4.460379553799">
        <ele>9.2</ele>
        <time>2019-05-08T21:19:52Z</time>
      </trkpt>
      <trkpt lat="51.227170906334" lon="4.459707744514">
        <ele>5</ele>
        <time>2019-05-08T21:20:27Z</time>
      </trkpt>
      <trkpt lat="51.227079795081" lon="4.459379341672">
        <ele>11.4</ele>
        <time>2019-05-08T21:20:44Z</time>
      </trkpt>
      <trkpt lat="51.22708574623" lon="4.459133584364">
        <ele>7.2</ele>
        <time>2019-05-08T21:21:08Z</time>
      </trkpt>
      <trkpt lat="51.227142072598" lon="4.459103409524">
        <ele>9.2</ele>
        <time>2019-05-08T21:21:18Z</time>
      </trkpt>
      <trkpt lat="51.227585810384" lon="4.458906015779">
        <ele>15</ele>
        <time>2019-05-08T21:21:58Z</time>
      </trkpt>
      <trkpt lat="51.227689662125" lon="4.458829908127">
        <ele>11.4</ele>
        <time>2019-05-08T21:22:13Z</time>
      </trkpt>
      <trkpt lat="51.228097944474" lon="4.458530255202">
        <ele>7</ele>
        <time>2019-05-08T21:22:47Z</time>
      </trkpt>
      <trkpt lat="51.228375217726" lon="4.458435036818">
        <ele>10.4</ele>
        <time>2019-05-08T21:23:30Z</time>
      </trkpt>
      <trkpt lat="51.228773777071" lon="4.458163463258">
        <ele>0.2</ele>
        <time>2019-05-08T21:24:04Z</time>
      </trkpt>
      <trkpt lat="51.229006207158" lon="4.458137479368">
        <ele>6.2</ele>
        <time>2019-05-08T21:24:27Z</time>
      </trkpt>
      <trkpt lat="51.22945363298" lon="4.458023234071">
        <ele>4.4</ele>
        <time>2019-05-08T21:25:04Z</time>
      </trkpt>
      <trkpt lat="51.229671394742" lon="4.457904881643">
        <ele>9</ele>
        <time>2019-05-08T21:25:55Z</time>
      </trkpt>
      <trkpt lat="51.229697378632" lon="4.457813267476">
        <ele>12.8</ele>
        <time>2019-05-08T21:26:09Z</time>
      </trkpt>
      <trkpt lat="51.229699055012" lon="4.457805639947">
        <ele>13</ele>
        <time>2019-05-08T21:26:10Z</time>
      </trkpt>
    </trkseg>
  </trk>
</gpx>